sensor_id;sensor_type;location;lat;lon;timestamp;P1;durP1;ratioP1;P2;durP2;ratioP2
37201;SDS011;37799;52.390;6.136;2023-08-30T00:02:11;9.77;;;4.28;;
37201;SDS011;37799;52.390;6.136;2023-08-30T00:04:36;11.57;;;5.40;;
37201;SDS011;37799;52.390;6.136;2023-08-30T00:07:01;11.13;;;5.28;;
37201;SDS011;37799;52.390;6.136;2023-08-30T00:09:27;9.82;;;4.40;;
37201;SDS011;37799;52.390;6.136;2023-08-30T00:11:52;11.80;;;4.68;;
37201;SDS011;37799;52.390;6.136;2023-08-30T00:14:17;13.75;;;4.95;;
37201;SDS011;37799;52.390;6.136;2023-08-30T00:16:43;10.88;;;4.30;;
37201;SDS011;37799;52.390;6.136;2023-08-30T00:19:08;9.68;;;4.35;;
37201;SDS011;37799;52.390;6.136;2023-08-30T00:21:33;9.32;;;4.20;;
37201;SDS011;37799;52.390;6.136;2023-08-30T00:23:59;9.57;;;4.70;;
37201;SDS011;37799;52.390;6.136;2023-08-30T00:26:25;9.52;;;4.07;;
37201;SDS011;37799;52.390;6.136;2023-08-30T00:28:50;10.93;;;3.88;;
37201;SDS011;37799;52.390;6.136;2023-08-30T00:31:15;10.60;;;4.50;;
37201;SDS011;37799;52.390;6.136;2023-08-30T00:33:41;10.80;;;4.53;;
37201;SDS011;37799;52.390;6.136;2023-08-30T00:36:06;9.75;;;4.20;;
37201;SDS011;37799;52.390;6.136;2023-08-30T00:38:32;10.45;;;4.72;;
37201;SDS011;37799;52.390;6.136;2023-08-30T00:40:59;10.48;;;4.47;;
37201;SDS011;37799;52.390;6.136;2023-08-30T00:43:24;10.00;;;4.30;;
37201;SDS011;37799;52.390;6.136;2023-08-30T00:45:49;8.93;;;3.92;;
37201;SDS011;37799;52.390;6.136;2023-08-30T00:48:16;8.25;;;3.92;;
37201;SDS011;37799;52.390;6.136;2023-08-30T00:50:43;9.90;;;4.25;;
37201;SDS011;37799;52.390;6.136;2023-08-30T00:53:09;9.60;;;4.18;;
37201;SDS011;37799;52.390;6.136;2023-08-30T00:55:35;8.95;;;4.18;;
37201;SDS011;37799;52.390;6.136;2023-08-30T00:58:02;8.82;;;4.03;;
37201;SDS011;37799;52.390;6.136;2023-08-30T01:00:29;10.35;;;4.35;;
37201;SDS011;37799;52.390;6.136;2023-08-30T01:02:55;8.93;;;4.05;;
37201;SDS011;37799;52.390;6.136;2023-08-30T01:05:21;9.18;;;3.92;;
37201;SDS011;37799;52.390;6.136;2023-08-30T01:07:47;11.55;;;3.65;;
37201;SDS011;37799;52.390;6.136;2023-08-30T01:10:13;8.85;;;3.83;;
37201;SDS011;37799;52.390;6.136;2023-08-30T01:12:47;9.88;;;3.65;;
37201;SDS011;37799;52.390;6.136;2023-08-30T01:15:15;9.40;;;3.75;;
37201;SDS011;37799;52.390;6.136;2023-08-30T01:17:44;8.48;;;3.55;;
37201;SDS011;37799;52.390;6.136;2023-08-30T01:20:12;8.23;;;3.50;;
37201;SDS011;37799;52.390;6.136;2023-08-30T01:25:38;8.90;;;3.70;;
37201;SDS011;37799;52.390;6.136;2023-08-30T01:28:08;8.90;;;3.60;;
37201;SDS011;37799;52.390;6.136;2023-08-30T01:30:36;9.55;;;4.15;;
37201;SDS011;37799;52.390;6.136;2023-08-30T01:33:05;10.68;;;3.70;;
37201;SDS011;37799;52.390;6.136;2023-08-30T01:35:32;9.05;;;3.45;;
37201;SDS011;37799;52.390;6.136;2023-08-30T01:38:01;8.98;;;3.22;;
37201;SDS011;37799;52.390;6.136;2023-08-30T01:40:28;9.93;;;3.85;;
37201;SDS011;37799;52.390;6.136;2023-08-30T01:42:57;10.07;;;3.88;;
37201;SDS011;37799;52.390;6.136;2023-08-30T01:45:24;9.07;;;3.30;;
37201;SDS011;37799;52.390;6.136;2023-08-30T01:47:51;8.57;;;3.33;;
37201;SDS011;37799;52.390;6.136;2023-08-30T01:50:18;8.98;;;3.75;;
37201;SDS011;37799;52.390;6.136;2023-08-30T01:52:45;9.60;;;3.65;;
37201;SDS011;37799;52.390;6.136;2023-08-30T01:55:11;9.30;;;3.60;;
37201;SDS011;37799;52.390;6.136;2023-08-30T01:57:39;8.23;;;3.10;;
37201;SDS011;37799;52.390;6.136;2023-08-30T02:00:04;9.10;;;3.28;;
37201;SDS011;37799;52.390;6.136;2023-08-30T02:02:31;8.50;;;3.42;;
37201;SDS011;37799;52.390;6.136;2023-08-30T02:04:57;9.30;;;3.40;;
37201;SDS011;37799;52.390;6.136;2023-08-30T02:07:25;7.57;;;2.80;;
37201;SDS011;37799;52.390;6.136;2023-08-30T02:10:14;9.25;;;3.40;;
37201;SDS011;37799;52.390;6.136;2023-08-30T02:12:48;7.82;;;3.35;;
37201;SDS011;37799;52.390;6.136;2023-08-30T02:15:15;9.30;;;2.97;;
37201;SDS011;37799;52.390;6.136;2023-08-30T02:17:42;9.45;;;3.58;;
37201;SDS011;37799;52.390;6.136;2023-08-30T02:20:08;7.95;;;2.97;;
37201;SDS011;37799;52.390;6.136;2023-08-30T02:22:34;7.00;;;2.78;;
37201;SDS011;37799;52.390;6.136;2023-08-30T02:25:00;8.55;;;3.40;;
37201;SDS011;37799;52.390;6.136;2023-08-30T02:27:29;8.27;;;3.38;;
37201;SDS011;37799;52.390;6.136;2023-08-30T02:29:55;8.18;;;3.20;;
37201;SDS011;37799;52.390;6.136;2023-08-30T02:32:21;9.05;;;3.22;;
37201;SDS011;37799;52.390;6.136;2023-08-30T02:34:49;8.55;;;2.90;;
37201;SDS011;37799;52.390;6.136;2023-08-30T02:37:15;9.02;;;3.75;;
37201;SDS011;37799;52.390;6.136;2023-08-30T02:39:40;9.50;;;3.53;;
37201;SDS011;37799;52.390;6.136;2023-08-30T02:42:06;10.00;;;3.70;;
37201;SDS011;37799;52.390;6.136;2023-08-30T02:44:31;9.77;;;3.92;;
37201;SDS011;37799;52.390;6.136;2023-08-30T02:46:56;10.60;;;3.65;;
37201;SDS011;37799;52.390;6.136;2023-08-30T02:49:22;10.30;;;3.60;;
37201;SDS011;37799;52.390;6.136;2023-08-30T02:51:47;8.77;;;3.45;;
37201;SDS011;37799;52.390;6.136;2023-08-30T02:54:12;9.63;;;3.70;;
37201;SDS011;37799;52.390;6.136;2023-08-30T02:56:38;9.60;;;3.42;;
37201;SDS011;37799;52.390;6.136;2023-08-30T02:59:05;12.07;;;3.47;;
37201;SDS011;37799;52.390;6.136;2023-08-30T03:01:30;7.63;;;2.90;;
37201;SDS011;37799;52.390;6.136;2023-08-30T03:03:55;8.35;;;3.47;;
37201;SDS011;37799;52.390;6.136;2023-08-30T03:06:21;8.73;;;3.30;;
37201;SDS011;37799;52.390;6.136;2023-08-30T03:08:46;8.32;;;2.97;;
37201;SDS011;37799;52.390;6.136;2023-08-30T03:11:11;10.32;;;3.65;;
37201;SDS011;37799;52.390;6.136;2023-08-30T03:13:38;8.50;;;3.55;;
37201;SDS011;37799;52.390;6.136;2023-08-30T03:16:13;11.02;;;3.97;;
37201;SDS011;37799;52.390;6.136;2023-08-30T03:18:39;10.13;;;3.47;;
37201;SDS011;37799;52.390;6.136;2023-08-30T03:21:05;10.20;;;3.50;;
37201;SDS011;37799;52.390;6.136;2023-08-30T03:23:31;8.57;;;3.22;;
37201;SDS011;37799;52.390;6.136;2023-08-30T03:25:58;8.18;;;3.38;;
37201;SDS011;37799;52.390;6.136;2023-08-30T03:28:24;8.25;;;3.08;;
37201;SDS011;37799;52.390;6.136;2023-08-30T03:30:49;8.73;;;3.40;;
37201;SDS011;37799;52.390;6.136;2023-08-30T03:33:14;9.20;;;3.45;;
37201;SDS011;37799;52.390;6.136;2023-08-30T03:35:40;10.18;;;3.90;;
37201;SDS011;37799;52.390;6.136;2023-08-30T03:38:05;11.57;;;3.22;;
37201;SDS011;37799;52.390;6.136;2023-08-30T03:40:31;9.23;;;3.20;;
37201;SDS011;37799;52.390;6.136;2023-08-30T03:42:56;9.40;;;3.88;;
37201;SDS011;37799;52.390;6.136;2023-08-30T03:45:21;9.18;;;3.75;;
37201;SDS011;37799;52.390;6.136;2023-08-30T03:47:47;9.70;;;4.03;;
37201;SDS011;37799;52.390;6.136;2023-08-30T03:50:12;9.52;;;3.33;;
37201;SDS011;37799;52.390;6.136;2023-08-30T03:52:38;7.80;;;3.13;;
37201;SDS011;37799;52.390;6.136;2023-08-30T03:55:03;9.52;;;3.30;;
37201;SDS011;37799;52.390;6.136;2023-08-30T03:57:29;9.18;;;3.30;;
37201;SDS011;37799;52.390;6.136;2023-08-30T03:59:54;8.57;;;3.00;;
37201;SDS011;37799;52.390;6.136;2023-08-30T04:02:20;9.52;;;3.67;;
37201;SDS011;37799;52.390;6.136;2023-08-30T04:04:48;10.18;;;3.50;;
37201;SDS011;37799;52.390;6.136;2023-08-30T04:07:14;9.05;;;3.80;;
37201;SDS011;37799;52.390;6.136;2023-08-30T04:09:40;8.55;;;3.28;;
37201;SDS011;37799;52.390;6.136;2023-08-30T04:12:05;9.90;;;3.78;;
37201;SDS011;37799;52.390;6.136;2023-08-30T04:14:31;9.40;;;3.35;;
37201;SDS011;37799;52.390;6.136;2023-08-30T04:16:56;10.35;;;3.78;;
37201;SDS011;37799;52.390;6.136;2023-08-30T04:19:22;9.43;;;4.03;;
37201;SDS011;37799;52.390;6.136;2023-08-30T04:21:47;7.88;;;3.13;;
37201;SDS011;37799;52.390;6.136;2023-08-30T04:24:14;10.52;;;3.22;;
37201;SDS011;37799;52.390;6.136;2023-08-30T04:26:40;9.93;;;3.67;;
37201;SDS011;37799;52.390;6.136;2023-08-30T04:29:05;11.20;;;3.95;;
37201;SDS011;37799;52.390;6.136;2023-08-30T04:31:31;9.50;;;3.50;;
37201;SDS011;37799;52.390;6.136;2023-08-30T04:33:56;10.85;;;4.07;;
37201;SDS011;37799;52.390;6.136;2023-08-30T04:36:22;9.18;;;3.42;;
37201;SDS011;37799;52.390;6.136;2023-08-30T04:38:47;10.93;;;3.80;;
37201;SDS011;37799;52.390;6.136;2023-08-30T04:41:13;9.52;;;3.50;;
37201;SDS011;37799;52.390;6.136;2023-08-30T04:43:38;10.88;;;3.45;;
37201;SDS011;37799;52.390;6.136;2023-08-30T04:46:03;9.93;;;3.75;;
37201;SDS011;37799;52.390;6.136;2023-08-30T04:48:29;10.63;;;3.30;;
37201;SDS011;37799;52.390;6.136;2023-08-30T04:50:58;11.23;;;4.00;;
37201;SDS011;37799;52.390;6.136;2023-08-30T04:53:28;11.35;;;3.95;;
37201;SDS011;37799;52.390;6.136;2023-08-30T04:55:54;9.57;;;3.70;;
37201;SDS011;37799;52.390;6.136;2023-08-30T04:58:19;10.18;;;3.35;;
37201;SDS011;37799;52.390;6.136;2023-08-30T05:00:45;10.38;;;3.70;;
37201;SDS011;37799;52.390;6.136;2023-08-30T05:03:10;9.18;;;3.40;;
37201;SDS011;37799;52.390;6.136;2023-08-30T05:05:36;10.45;;;4.00;;
37201;SDS011;37799;52.390;6.136;2023-08-30T05:08:01;9.77;;;3.63;;
37201;SDS011;37799;52.390;6.136;2023-08-30T05:10:27;9.90;;;3.75;;
37201;SDS011;37799;52.390;6.136;2023-08-30T05:12:52;8.45;;;3.30;;
37201;SDS011;37799;52.390;6.136;2023-08-30T05:15:18;9.35;;;3.35;;
37201;SDS011;37799;52.390;6.136;2023-08-30T05:17:43;8.90;;;3.70;;
37201;SDS011;37799;52.390;6.136;2023-08-30T05:20:09;11.02;;;3.78;;
37201;SDS011;37799;52.390;6.136;2023-08-30T05:22:34;9.63;;;3.25;;
37201;SDS011;37799;52.390;6.136;2023-08-30T05:25:00;10.50;;;3.63;;
37201;SDS011;37799;52.390;6.136;2023-08-30T05:27:26;10.23;;;3.33;;
37201;SDS011;37799;52.390;6.136;2023-08-30T05:29:52;9.00;;;3.13;;
37201;SDS011;37799;52.390;6.136;2023-08-30T05:32:18;10.07;;;3.53;;
37201;SDS011;37799;52.390;6.136;2023-08-30T05:34:43;10.23;;;3.72;;
37201;SDS011;37799;52.390;6.136;2023-08-30T05:37:09;10.02;;;3.67;;
37201;SDS011;37799;52.390;6.136;2023-08-30T05:39:35;10.50;;;3.75;;
37201;SDS011;37799;52.390;6.136;2023-08-30T05:42:01;11.10;;;3.83;;
37201;SDS011;37799;52.390;6.136;2023-08-30T05:44:26;8.55;;;3.00;;
37201;SDS011;37799;52.390;6.136;2023-08-30T05:46:51;9.82;;;3.50;;
37201;SDS011;37799;52.390;6.136;2023-08-30T05:49:17;9.13;;;3.50;;
37201;SDS011;37799;52.390;6.136;2023-08-30T05:51:42;10.18;;;3.58;;
37201;SDS011;37799;52.390;6.136;2023-08-30T05:54:07;11.32;;;4.05;;
37201;SDS011;37799;52.390;6.136;2023-08-30T05:56:33;13.00;;;3.95;;
37201;SDS011;37799;52.390;6.136;2023-08-30T05:58:58;10.35;;;3.58;;
37201;SDS011;37799;52.390;6.136;2023-08-30T06:01:23;9.70;;;3.97;;
37201;SDS011;37799;52.390;6.136;2023-08-30T06:03:49;12.48;;;3.97;;
37201;SDS011;37799;52.390;6.136;2023-08-30T06:06:15;9.32;;;3.72;;
37201;SDS011;37799;52.390;6.136;2023-08-30T06:08:41;8.40;;;3.38;;
37201;SDS011;37799;52.390;6.136;2023-08-30T06:11:06;9.35;;;3.58;;
37201;SDS011;37799;52.390;6.136;2023-08-30T06:13:31;9.13;;;3.38;;
37201;SDS011;37799;52.390;6.136;2023-08-30T06:15:57;10.77;;;3.90;;
37201;SDS011;37799;52.390;6.136;2023-08-30T06:18:22;9.32;;;3.53;;
37201;SDS011;37799;52.390;6.136;2023-08-30T06:20:47;10.27;;;3.70;;
37201;SDS011;37799;52.390;6.136;2023-08-30T06:23:14;9.55;;;3.90;;
37201;SDS011;37799;52.390;6.136;2023-08-30T06:25:40;10.98;;;4.10;;
37201;SDS011;37799;52.390;6.136;2023-08-30T06:28:06;10.48;;;4.18;;
37201;SDS011;37799;52.390;6.136;2023-08-30T06:30:31;9.73;;;3.88;;
37201;SDS011;37799;52.390;6.136;2023-08-30T06:32:56;10.38;;;4.25;;
37201;SDS011;37799;52.390;6.136;2023-08-30T06:35:22;10.82;;;3.65;;
37201;SDS011;37799;52.390;6.136;2023-08-30T06:37:48;11.55;;;4.45;;
37201;SDS011;37799;52.390;6.136;2023-08-30T06:40:13;10.75;;;3.90;;
37201;SDS011;37799;52.390;6.136;2023-08-30T06:42:39;11.90;;;3.55;;
37201;SDS011;37799;52.390;6.136;2023-08-30T06:45:04;9.75;;;4.00;;
37201;SDS011;37799;52.390;6.136;2023-08-30T06:47:30;10.60;;;4.00;;
37201;SDS011;37799;52.390;6.136;2023-08-30T06:49:56;9.85;;;3.90;;
37201;SDS011;37799;52.390;6.136;2023-08-30T06:52:21;10.65;;;4.28;;
37201;SDS011;37799;52.390;6.136;2023-08-30T06:54:47;10.48;;;4.32;;
37201;SDS011;37799;52.390;6.136;2023-08-30T06:57:12;12.10;;;4.13;;
37201;SDS011;37799;52.390;6.136;2023-08-30T06:59:37;10.13;;;4.03;;
37201;SDS011;37799;52.390;6.136;2023-08-30T07:02:03;14.30;;;4.45;;
37201;SDS011;37799;52.390;6.136;2023-08-30T07:04:29;10.95;;;4.22;;
37201;SDS011;37799;52.390;6.136;2023-08-30T07:06:54;9.65;;;3.80;;
37201;SDS011;37799;52.390;6.136;2023-08-30T07:09:20;10.07;;;4.28;;
37201;SDS011;37799;52.390;6.136;2023-08-30T07:11:47;9.43;;;4.00;;
37201;SDS011;37799;52.390;6.136;2023-08-30T07:14:12;9.75;;;3.55;;
37201;SDS011;37799;52.390;6.136;2023-08-30T07:16:39;11.43;;;4.20;;
37201;SDS011;37799;52.390;6.136;2023-08-30T07:19:05;10.32;;;3.95;;
37201;SDS011;37799;52.390;6.136;2023-08-30T07:21:30;9.02;;;3.85;;
37201;SDS011;37799;52.390;6.136;2023-08-30T07:23:56;9.25;;;3.78;;
37201;SDS011;37799;52.390;6.136;2023-08-30T07:26:21;10.13;;;4.10;;
37201;SDS011;37799;52.390;6.136;2023-08-30T07:28:47;10.38;;;3.53;;
37201;SDS011;37799;52.390;6.136;2023-08-30T07:31:12;9.95;;;3.80;;
37201;SDS011;37799;52.390;6.136;2023-08-30T07:33:43;9.98;;;3.75;;
37201;SDS011;37799;52.390;6.136;2023-08-30T07:36:08;9.85;;;3.70;;
37201;SDS011;37799;52.390;6.136;2023-08-30T07:38:34;11.75;;;4.13;;
37201;SDS011;37799;52.390;6.136;2023-08-30T07:41:00;10.77;;;3.70;;
37201;SDS011;37799;52.390;6.136;2023-08-30T07:43:25;9.00;;;3.30;;
37201;SDS011;37799;52.390;6.136;2023-08-30T07:45:51;10.23;;;4.00;;
37201;SDS011;37799;52.390;6.136;2023-08-30T07:48:16;9.82;;;3.85;;
37201;SDS011;37799;52.390;6.136;2023-08-30T07:50:41;10.10;;;3.63;;
37201;SDS011;37799;52.390;6.136;2023-08-30T07:53:07;10.23;;;4.10;;
37201;SDS011;37799;52.390;6.136;2023-08-30T07:55:32;9.15;;;3.53;;
37201;SDS011;37799;52.390;6.136;2023-08-30T07:57:58;14.63;;;3.80;;
37201;SDS011;37799;52.390;6.136;2023-08-30T08:00:23;9.55;;;3.47;;
37201;SDS011;37799;52.390;6.136;2023-08-30T08:02:48;8.05;;;3.40;;
37201;SDS011;37799;52.390;6.136;2023-08-30T08:05:14;9.63;;;3.78;;
37201;SDS011;37799;52.390;6.136;2023-08-30T08:07:39;10.25;;;3.83;;
37201;SDS011;37799;52.390;6.136;2023-08-30T08:10:05;10.10;;;4.07;;
37201;SDS011;37799;52.390;6.136;2023-08-30T08:12:32;12.52;;;4.47;;
37201;SDS011;37799;52.390;6.136;2023-08-30T08:14:58;11.10;;;4.30;;
37201;SDS011;37799;52.390;6.136;2023-08-30T08:17:23;11.60;;;4.07;;
37201;SDS011;37799;52.390;6.136;2023-08-30T08:19:49;10.55;;;3.60;;
37201;SDS011;37799;52.390;6.136;2023-08-30T08:22:14;10.02;;;3.75;;
37201;SDS011;37799;52.390;6.136;2023-08-30T08:24:39;11.57;;;4.35;;
37201;SDS011;37799;52.390;6.136;2023-08-30T08:27:05;9.55;;;3.95;;
37201;SDS011;37799;52.390;6.136;2023-08-30T08:29:31;9.05;;;4.10;;
37201;SDS011;37799;52.390;6.136;2023-08-30T08:31:56;10.85;;;4.22;;
37201;SDS011;37799;52.390;6.136;2023-08-30T08:34:22;9.45;;;4.35;;
37201;SDS011;37799;52.390;6.136;2023-08-30T08:36:47;9.95;;;4.38;;
37201;SDS011;37799;52.390;6.136;2023-08-30T08:39:13;9.43;;;3.60;;
37201;SDS011;37799;52.390;6.136;2023-08-30T08:41:42;13.45;;;4.28;;
37201;SDS011;37799;52.390;6.136;2023-08-30T08:44:09;9.82;;;4.05;;
37201;SDS011;37799;52.390;6.136;2023-08-30T08:46:36;12.10;;;4.18;;
37201;SDS011;37799;52.390;6.136;2023-08-30T08:49:05;9.43;;;3.70;;
37201;SDS011;37799;52.390;6.136;2023-08-30T08:51:36;10.15;;;3.78;;
37201;SDS011;37799;52.390;6.136;2023-08-30T08:54:04;9.52;;;4.22;;
37201;SDS011;37799;52.390;6.136;2023-08-30T08:56:30;9.60;;;3.60;;
37201;SDS011;37799;52.390;6.136;2023-08-30T08:58:57;8.75;;;3.72;;
37201;SDS011;37799;52.390;6.136;2023-08-30T09:01:23;8.90;;;3.08;;
37201;SDS011;37799;52.390;6.136;2023-08-30T09:03:50;8.43;;;3.42;;
37201;SDS011;37799;52.390;6.136;2023-08-30T09:06:15;9.85;;;3.97;;
37201;SDS011;37799;52.390;6.136;2023-08-30T09:08:41;8.43;;;3.58;;
37201;SDS011;37799;52.390;6.136;2023-08-30T09:11:07;9.02;;;3.75;;
37201;SDS011;37799;52.390;6.136;2023-08-30T09:13:32;9.68;;;4.20;;
37201;SDS011;37799;52.390;6.136;2023-08-30T09:15:57;9.55;;;3.88;;
37201;SDS011;37799;52.390;6.136;2023-08-30T09:18:24;9.25;;;3.78;;
37201;SDS011;37799;52.390;6.136;2023-08-30T09:20:52;11.80;;;3.72;;
37201;SDS011;37799;52.390;6.136;2023-08-30T09:23:21;8.45;;;3.13;;
37201;SDS011;37799;52.390;6.136;2023-08-30T09:28:19;8.45;;;3.08;;
37201;SDS011;37799;52.390;6.136;2023-08-30T09:30:49;10.48;;;3.67;;
37201;SDS011;37799;52.390;6.136;2023-08-30T09:33:15;8.93;;;3.53;;
37201;SDS011;37799;52.390;6.136;2023-08-30T09:35:43;7.63;;;3.03;;
37201;SDS011;37799;52.390;6.136;2023-08-30T09:38:15;9.23;;;3.45;;
37201;SDS011;37799;52.390;6.136;2023-08-30T09:40:42;9.90;;;3.60;;
37201;SDS011;37799;52.390;6.136;2023-08-30T09:43:08;8.68;;;3.60;;
37201;SDS011;37799;52.390;6.136;2023-08-30T09:45:34;9.25;;;3.33;;
37201;SDS011;37799;52.390;6.136;2023-08-30T09:48:00;9.23;;;3.30;;
37201;SDS011;37799;52.390;6.136;2023-08-30T09:50:26;8.02;;;2.55;;
37201;SDS011;37799;52.390;6.136;2023-08-30T09:52:56;7.82;;;2.88;;
37201;SDS011;37799;52.390;6.136;2023-08-30T09:55:22;7.30;;;2.55;;
37201;SDS011;37799;52.390;6.136;2023-08-30T09:57:47;7.72;;;2.95;;
37201;SDS011;37799;52.390;6.136;2023-08-30T10:00:13;7.30;;;2.60;;
37201;SDS011;37799;52.390;6.136;2023-08-30T10:02:43;7.03;;;2.90;;
37201;SDS011;37799;52.390;6.136;2023-08-30T10:05:12;6.88;;;2.22;;
37201;SDS011;37799;52.390;6.136;2023-08-30T10:07:38;8.10;;;3.10;;
37201;SDS011;37799;52.390;6.136;2023-08-30T10:10:04;8.50;;;3.00;;
37201;SDS011;37799;52.390;6.136;2023-08-30T10:12:33;8.13;;;2.83;;
37201;SDS011;37799;52.390;6.136;2023-08-30T10:14:59;8.23;;;2.70;;
37201;SDS011;37799;52.390;6.136;2023-08-30T10:17:28;7.03;;;2.83;;
37201;SDS011;37799;52.390;6.136;2023-08-30T10:19:57;7.95;;;2.50;;
37201;SDS011;37799;52.390;6.136;2023-08-30T10:22:24;6.50;;;2.50;;
37201;SDS011;37799;52.390;6.136;2023-08-30T10:27:16;7.50;;;2.60;;
37201;SDS011;37799;52.390;6.136;2023-08-30T10:29:42;6.68;;;2.60;;
37201;SDS011;37799;52.390;6.136;2023-08-30T10:32:09;8.07;;;2.60;;
37201;SDS011;37799;52.390;6.136;2023-08-30T10:34:35;7.15;;;2.55;;
37201;SDS011;37799;52.390;6.136;2023-08-30T10:37:11;7.20;;;2.72;;
37201;SDS011;37799;52.390;6.136;2023-08-30T10:39:40;8.85;;;3.22;;
37201;SDS011;37799;52.390;6.136;2023-08-30T10:42:07;6.75;;;2.63;;
37201;SDS011;37799;52.390;6.136;2023-08-30T10:44:46;7.47;;;2.90;;
37201;SDS011;37799;52.390;6.136;2023-08-30T10:47:19;9.20;;;3.03;;
37201;SDS011;37799;52.390;6.136;2023-08-30T10:49:55;9.05;;;3.45;;
37201;SDS011;37799;52.390;6.136;2023-08-30T10:52:22;7.68;;;3.10;;
37201;SDS011;37799;52.390;6.136;2023-08-30T10:54:48;7.63;;;2.92;;
37201;SDS011;37799;52.390;6.136;2023-08-30T10:57:15;7.85;;;3.25;;
37201;SDS011;37799;52.390;6.136;2023-08-30T11:02:32;8.07;;;3.00;;
37201;SDS011;37799;52.390;6.136;2023-08-30T11:04:58;7.00;;;2.65;;
37201;SDS011;37799;52.390;6.136;2023-08-30T11:07:24;7.68;;;3.10;;
37201;SDS011;37799;52.390;6.136;2023-08-30T11:09:51;8.95;;;2.88;;
37201;SDS011;37799;52.390;6.136;2023-08-30T11:12:17;8.27;;;3.05;;
37201;SDS011;37799;52.390;6.136;2023-08-30T11:14:43;6.30;;;2.53;;
37201;SDS011;37799;52.390;6.136;2023-08-30T11:17:11;7.47;;;2.90;;
37201;SDS011;37799;52.390;6.136;2023-08-30T11:19:37;8.18;;;3.13;;
37201;SDS011;37799;52.390;6.136;2023-08-30T11:22:02;7.18;;;3.03;;
37201;SDS011;37799;52.390;6.136;2023-08-30T11:24:28;6.60;;;2.75;;
37201;SDS011;37799;52.390;6.136;2023-08-30T11:26:54;6.88;;;2.50;;
37201;SDS011;37799;52.390;6.136;2023-08-30T11:29:20;6.97;;;2.58;;
37201;SDS011;37799;52.390;6.136;2023-08-30T11:31:45;6.60;;;2.47;;
37201;SDS011;37799;52.390;6.136;2023-08-30T11:34:12;6.80;;;2.97;;
37201;SDS011;37799;52.390;6.136;2023-08-30T11:36:37;6.63;;;2.80;;
37201;SDS011;37799;52.390;6.136;2023-08-30T11:39:03;6.65;;;2.55;;
37201;SDS011;37799;52.390;6.136;2023-08-30T11:41:29;7.50;;;2.78;;
37201;SDS011;37799;52.390;6.136;2023-08-30T11:43:56;7.45;;;2.83;;
37201;SDS011;37799;52.390;6.136;2023-08-30T11:46:24;7.45;;;3.10;;
37201;SDS011;37799;52.390;6.136;2023-08-30T11:48:50;8.93;;;3.50;;
37201;SDS011;37799;52.390;6.136;2023-08-30T11:51:17;8.45;;;3.60;;
37201;SDS011;37799;52.390;6.136;2023-08-30T11:53:44;9.30;;;3.88;;
37201;SDS011;37799;52.390;6.136;2023-08-30T11:56:10;10.48;;;4.57;;
37201;SDS011;37799;52.390;6.136;2023-08-30T11:58:37;10.18;;;4.80;;
37201;SDS011;37799;52.390;6.136;2023-08-30T12:01:03;11.68;;;4.18;;
37201;SDS011;37799;52.390;6.136;2023-08-30T12:03:29;8.13;;;3.92;;
37201;SDS011;37799;52.390;6.136;2023-08-30T12:05:56;8.13;;;3.88;;
37201;SDS011;37799;52.390;6.136;2023-08-30T12:08:23;8.60;;;3.83;;
37201;SDS011;37799;52.390;6.136;2023-08-30T12:10:49;7.60;;;3.30;;
37201;SDS011;37799;52.390;6.136;2023-08-30T12:13:22;8.02;;;3.22;;
37201;SDS011;37799;52.390;6.136;2023-08-30T12:15:51;6.32;;;2.60;;
37201;SDS011;37799;52.390;6.136;2023-08-30T12:18:24;5.47;;;2.03;;
37201;SDS011;37799;52.390;6.136;2023-08-30T12:20:53;7.22;;;2.60;;
37201;SDS011;37799;52.390;6.136;2023-08-30T12:23:23;6.60;;;2.38;;
37201;SDS011;37799;52.390;6.136;2023-08-30T12:28:29;5.40;;;2.40;;
37201;SDS011;37799;52.390;6.136;2023-08-30T12:30:55;5.95;;;2.08;;
37201;SDS011;37799;52.390;6.136;2023-08-30T12:33:22;6.03;;;2.17;;
37201;SDS011;37799;52.390;6.136;2023-08-30T12:35:48;5.80;;;2.10;;
37201;SDS011;37799;52.390;6.136;2023-08-30T12:38:13;5.43;;;1.58;;
37201;SDS011;37799;52.390;6.136;2023-08-30T12:40:43;3.80;;;1.23;;
37201;SDS011;37799;52.390;6.136;2023-08-30T12:43:09;4.38;;;1.40;;
37201;SDS011;37799;52.390;6.136;2023-08-30T12:45:36;3.88;;;0.82;;
37201;SDS011;37799;52.390;6.136;2023-08-30T12:48:01;5.63;;;1.17;;
37201;SDS011;37799;52.390;6.136;2023-08-30T12:50:27;4.28;;;1.05;;
37201;SDS011;37799;52.390;6.136;2023-08-30T12:52:53;5.30;;;1.30;;
37201;SDS011;37799;52.390;6.136;2023-08-30T12:55:19;3.67;;;0.98;;
37201;SDS011;37799;52.390;6.136;2023-08-30T12:57:44;5.22;;;0.98;;
37201;SDS011;37799;52.390;6.136;2023-08-30T13:00:11;2.65;;;0.63;;
37201;SDS011;37799;52.390;6.136;2023-08-30T13:02:39;4.28;;;0.95;;
37201;SDS011;37799;52.390;6.136;2023-08-30T13:05:05;3.15;;;0.73;;
37201;SDS011;37799;52.390;6.136;2023-08-30T13:07:31;3.30;;;0.63;;
37201;SDS011;37799;52.390;6.136;2023-08-30T13:09:56;3.63;;;1.00;;
37201;SDS011;37799;52.390;6.136;2023-08-30T13:12:21;5.05;;;1.00;;
37201;SDS011;37799;52.390;6.136;2023-08-30T13:14:47;4.25;;;0.90;;
37201;SDS011;37799;52.390;6.136;2023-08-30T13:17:12;5.45;;;0.95;;
37201;SDS011;37799;52.390;6.136;2023-08-30T13:19:38;3.97;;;1.00;;
37201;SDS011;37799;52.390;6.136;2023-08-30T13:22:03;7.38;;;1.23;;
37201;SDS011;37799;52.390;6.136;2023-08-30T13:24:28;3.40;;;1.00;;
37201;SDS011;37799;52.390;6.136;2023-08-30T13:26:57;6.05;;;0.82;;
37201;SDS011;37799;52.390;6.136;2023-08-30T13:29:22;3.28;;;1.05;;
37201;SDS011;37799;52.390;6.136;2023-08-30T13:31:48;3.35;;;0.82;;
37201;SDS011;37799;52.390;6.136;2023-08-30T13:34:13;3.67;;;0.85;;
37201;SDS011;37799;52.390;6.136;2023-08-30T13:36:39;2.78;;;0.77;;
37201;SDS011;37799;52.390;6.136;2023-08-30T13:39:04;3.30;;;0.80;;
37201;SDS011;37799;52.390;6.136;2023-08-30T13:41:30;3.42;;;0.85;;
37201;SDS011;37799;52.390;6.136;2023-08-30T13:43:55;3.15;;;0.70;;
37201;SDS011;37799;52.390;6.136;2023-08-30T13:46:20;3.33;;;0.80;;
37201;SDS011;37799;52.390;6.136;2023-08-30T13:48:46;5.70;;;0.60;;
37201;SDS011;37799;52.390;6.136;2023-08-30T13:51:12;3.20;;;0.70;;
37201;SDS011;37799;52.390;6.136;2023-08-30T13:53:38;3.88;;;0.68;;
37201;SDS011;37799;52.390;6.136;2023-08-30T13:56:04;4.25;;;0.70;;
37201;SDS011;37799;52.390;6.136;2023-08-30T13:58:29;5.72;;;0.85;;
37201;SDS011;37799;52.390;6.136;2023-08-30T14:00:54;4.35;;;0.70;;
37201;SDS011;37799;52.390;6.136;2023-08-30T14:03:20;3.95;;;0.90;;
37201;SDS011;37799;52.390;6.136;2023-08-30T14:05:45;6.57;;;0.80;;
37201;SDS011;37799;52.390;6.136;2023-08-30T14:08:11;3.30;;;0.75;;
37201;SDS011;37799;52.390;6.136;2023-08-30T14:10:36;5.22;;;0.80;;
37201;SDS011;37799;52.390;6.136;2023-08-30T14:13:02;3.63;;;0.70;;
37201;SDS011;37799;52.390;6.136;2023-08-30T14:15:28;5.30;;;0.60;;
37201;SDS011;37799;52.390;6.136;2023-08-30T14:17:53;4.93;;;0.63;;
37201;SDS011;37799;52.390;6.136;2023-08-30T14:20:19;5.78;;;0.95;;
37201;SDS011;37799;52.390;6.136;2023-08-30T14:22:44;3.10;;;0.70;;
37201;SDS011;37799;52.390;6.136;2023-08-30T14:25:09;2.70;;;0.52;;
37201;SDS011;37799;52.390;6.136;2023-08-30T14:27:35;3.47;;;0.75;;
37201;SDS011;37799;52.390;6.136;2023-08-30T14:30:00;3.40;;;0.50;;
37201;SDS011;37799;52.390;6.136;2023-08-30T14:32:26;4.10;;;0.50;;
37201;SDS011;37799;52.390;6.136;2023-08-30T14:34:52;4.05;;;0.90;;
37201;SDS011;37799;52.390;6.136;2023-08-30T14:37:17;4.38;;;0.50;;
37201;SDS011;37799;52.390;6.136;2023-08-30T14:39:42;4.07;;;0.52;;
37201;SDS011;37799;52.390;6.136;2023-08-30T14:42:07;3.40;;;1.00;;
37201;SDS011;37799;52.390;6.136;2023-08-30T14:44:34;3.00;;;0.60;;
37201;SDS011;37799;52.390;6.136;2023-08-30T14:46:59;4.55;;;0.40;;
37201;SDS011;37799;52.390;6.136;2023-08-30T14:49:24;2.50;;;0.50;;
37201;SDS011;37799;52.390;6.136;2023-08-30T14:51:50;1.90;;;0.20;;